Time;durP1;ratioP1;P1;durP2;ratioP2;P2;SDS_P1;SDS_P2;PMS_P1;PMS_P2;Temp;Humidity;BMP_temperature;BMP_pressure;BME280_temperature;BME280_humidity;BME280_pressure;Samples;Min_cycle;Max_cycle;Signal;HPM_P1;HPM_P2
2023/04/30 00:00:23;;;;;;;;;;;9.50;99.90;;;;;;5019382;28;19925;-79
2023/04/30 00:02:50;;;;;;;;;;;9.40;99.90;;;;;;5012782;28;19957;-79
2023/04/30 00:05:17;;;;;;;;;;;9.50;99.90;;;;;;5020163;28;19921;-80
2023/04/30 00:07:43;;;;;;;;;;;9.50;99.90;;;;;;5019730;28;20291;-79
2023/04/30 00:10:10;;;;;;;;;;;9.50;99.90;;;;;;5019190;28;20008;-80
2023/04/30 00:12:37;;;;;;;;;;;9.40;99.90;;;;;;5013407;28;19979;-79
2023/04/30 00:15:04;;;;;;;;;;;9.30;99.90;;;;;;5034927;28;19967;-79
2023/04/30 00:17:31;;;;;;;;;;;9.40;99.90;;;;;;5033754;28;20085;-80
2023/04/30 00:19:58;;;;;;;;;;;9.30;99.90;;;;;;5035335;28;20528;-79
2023/04/30 00:22:25;;;;;;;;;;;9.30;99.90;;;;;;5020070;28;19929;-80
2023/04/30 00:24:52;;;;;;;;;;;9.30;99.90;;;;;;5034074;28;19929;-80
2023/04/30 00:27:19;;;;;;;;;;;9.20;99.90;;;;;;5017665;28;19979;-81
2023/04/30 00:29:48;;;;;;;;;;;9.10;99.90;;;;;;5020200;28;19925;-79
2023/04/30 00:32:14;;;;;;;;;;;9.20;99.90;;;;;;5017528;28;19927;-80
2023/04/30 00:34:41;;;;;;;;;;;9.10;99.90;;;;;;5017269;28;20329;-79
2023/04/30 00:37:08;;;;;;;;;;;9.10;99.90;;;;;;5018937;28;19925;-79
2023/04/30 00:39:34;;;;;;;;;;;9.00;99.90;;;;;;5016543;28;19927;-79
2023/04/30 00:42:01;;;;;;;;;;;9.00;99.90;;;;;;5017624;28;20538;-80
2023/04/30 00:44:28;;;;;;;;;;;8.90;99.90;;;;;;5017972;28;19933;-80
2023/04/30 00:46:54;;;;;;;;;;;9.00;99.90;;;;;;5016214;28;20405;-80
2023/04/30 00:49:21;;;;;;;;;;;8.90;99.90;;;;;;5017763;28;19932;-80
2023/04/30 00:51:48;;;;;;;;;;;8.90;99.90;;;;;;5019385;28;19964;-80
2023/04/30 00:54:14;;;;;;;;;;;9.00;99.90;;;;;;5018672;28;19921;-80
2023/04/30 00:56:41;;;;;;;;;;;9.00;99.90;;;;;;5016715;28;20210;-79
2023/04/30 00:59:08;;;;;;;;;;;9.00;99.90;;;;;;5019775;28;20309;-80
2023/04/30 01:01:35;;;;;;;;;;;8.90;99.90;;;;;;5017067;28;19999;-79
2023/04/30 01:04:02;;;;;;;;;;;8.80;99.90;;;;;;5034822;28;19935;-80
2023/04/30 01:06:28;;;;;;;;;;;8.70;99.90;;;;;;5017152;28;20436;-79
2023/04/30 01:08:56;;;;;;;;;;;8.60;99.90;;;;;;5016703;28;19933;-79
2023/04/30 01:11:41;;;;;;;;;;;8.60;99.90;;;;;;5014996;28;20836;-80
2023/04/30 01:14:09;;;;;;;;;;;8.60;99.90;;;;;;5018245;28;19921;-80
2023/04/30 01:16:44;;;;;;;;;;;8.60;99.90;;;;;;5000137;28;19925;-79
2023/04/30 01:19:26;;;;;;;;;;;8.60;99.90;;;;;;5015458;28;20014;-80
2023/04/30 01:21:53;;;;;;;;;;;8.50;99.90;;;;;;5017341;28;19921;-80
2023/04/30 01:24:44;;;;;;;;;;;8.50;99.90;;;;;;5015068;28;19969;-80
2023/04/30 01:27:22;;;;;;;;;;;8.50;99.90;;;;;;5032374;28;19972;-80
2023/04/30 01:29:49;;;;;;;;;;;8.50;99.90;;;;;;5017184;28;19964;-80
2023/04/30 01:32:16;;;;;;;;;;;8.50;99.90;;;;;;5019122;28;19932;-79
2023/04/30 01:34:43;;;;;;;;;;;8.50;99.90;;;;;;5020359;28;19968;-79
2023/04/30 01:37:29;;;;;;;;;;;8.50;99.90;;;;;;5020401;28;20341;-80
2023/04/30 01:39:57;;;;;;;;;;;8.50;99.90;;;;;;5023393;28;20035;-80
2023/04/30 01:42:35;;;;;;;;;;;8.40;99.90;;;;;;5023947;28;20682;-81
2023/04/30 01:45:05;;;;;;;;;;;8.30;99.90;;;;;;5019674;28;20011;-79
2023/04/30 01:47:35;;;;;;;;;;;8.30;99.90;;;;;;5022662;28;19967;-79
2023/04/30 01:50:02;;;;;;;;;;;8.30;99.90;;;;;;5023559;28;20035;-80
2023/04/30 01:52:45;;;;;;;;;;;8.30;99.90;;;;;;5023306;28;20074;-80
2023/04/30 01:55:27;;;;;;;;;;;8.20;99.90;;;;;;5021279;28;19941;-79
2023/04/30 01:57:58;;;;;;;;;;;8.20;99.90;;;;;;5021198;28;19957;-80
2023/04/30 02:00:25;;;;;;;;;;;8.10;99.90;;;;;;5020511;28;19936;-80
2023/04/30 02:02:52;;;;;;;;;;;8.10;99.90;;;;;;5019132;28;20004;-79
2023/04/30 02:05:19;;;;;;;;;;;8.00;99.90;;;;;;5022292;28;19937;-80
2023/04/30 02:07:46;;;;;;;;;;;8.00;99.90;;;;;;5023703;28;20023;-79
2023/04/30 02:10:16;;;;;;;;;;;7.90;99.90;;;;;;5020329;28;19972;-79
2023/04/30 02:12:42;;;;;;;;;;;7.90;99.90;;;;;;5019983;28;19999;-79
2023/04/30 02:15:09;;;;;;;;;;;7.90;99.90;;;;;;5022870;28;19921;-80
2023/04/30 02:17:36;;;;;;;;;;;7.90;99.90;;;;;;5021561;28;19920;-80
2023/04/30 02:20:03;;;;;;;;;;;7.90;99.90;;;;;;5022414;28;19925;-79
2023/04/30 02:22:30;;;;;;;;;;;7.90;99.90;;;;;;5022021;28;19936;-79
2023/04/30 02:24:57;;;;;;;;;;;7.90;99.90;;;;;;5021617;28;20277;-80
2023/04/30 02:27:24;;;;;;;;;;;7.90;99.90;;;;;;5021448;28;19921;-80
2023/04/30 02:29:51;;;;;;;;;;;7.90;99.90;;;;;;5022792;28;20317;-80
2023/04/30 02:32:18;;;;;;;;;;;7.90;99.90;;;;;;5022658;28;19933;-79
2023/04/30 02:34:45;;;;;;;;;;;7.90;99.90;;;;;;5021075;28;20321;-79
2023/04/30 02:37:11;;;;;;;;;;;7.90;99.90;;;;;;5041230;28;19929;-80
2023/04/30 02:39:38;;;;;;;;;;;7.90;99.90;;;;;;5024428;28;20572;-80
2023/04/30 02:42:05;;;;;;;;;;;8.00;99.90;;;;;;5025878;28;20051;-79
2023/04/30 02:44:32;;;;;;;;;;;7.90;99.90;;;;;;5025834;28;20329;-80
2023/04/30 02:46:59;;;;;;;;;;;8.00;99.90;;;;;;5025266;28;19943;-80
2023/04/30 02:49:26;;;;;;;;;;;8.00;99.90;;;;;;5027278;28;19999;-79
2023/04/30 02:51:53;;;;;;;;;;;8.00;99.90;;;;;;5043795;28;20011;-80
2023/04/30 02:54:19;;;;;;;;;;;8.00;99.90;;;;;;5027937;28;19925;-80
2023/04/30 02:56:46;;;;;;;;;;;8.00;99.90;;;;;;5027279;28;19921;-79
2023/04/30 02:59:13;;;;;;;;;;;8.00;99.90;;;;;;5028976;28;19928;-79
2023/04/30 03:01:40;;;;;;;;;;;8.00;99.90;;;;;;5010238;28;20325;-80
2023/04/30 03:04:07;;;;;;;;;;;8.00;99.90;;;;;;5043722;28;19923;-79
2023/04/30 03:06:34;;;;;;;;;;;8.00;99.90;;;;;;5025608;28;19920;-80
2023/04/30 03:09:01;;;;;;;;;;;8.00;99.90;;;;;;5027378;28;20611;-79
2023/04/30 03:11:27;;;;;;;;;;;7.90;99.90;;;;;;5025736;28;19927;-80
2023/04/30 03:13:54;;;;;;;;;;;7.90;99.90;;;;;;5027074;28;19920;-80
2023/04/30 03:16:21;;;;;;;;;;;7.90;99.90;;;;;;5026262;28;19976;-79
2023/04/30 03:18:48;;;;;;;;;;;7.80;99.90;;;;;;5027122;28;19921;-79
2023/04/30 03:21:14;;;;;;;;;;;7.80;99.90;;;;;;5026316;28;19963;-80
2023/04/30 03:23:41;;;;;;;;;;;7.90;99.90;;;;;;5025031;28;19925;-80
2023/04/30 03:26:08;;;;;;;;;;;7.80;99.90;;;;;;5041597;28;19927;-79
2023/04/30 03:28:34;;;;;;;;;;;7.80;99.90;;;;;;5042122;28;19921;-79
2023/04/30 03:31:04;;;;;;;;;;;7.80;99.90;;;;;;5027725;28;19925;-80
2023/04/30 03:33:31;;;;;;;;;;;7.80;99.90;;;;;;5027688;28;19921;-80
2023/04/30 03:35:58;;;;;;;;;;;7.70;99.90;;;;;;5026343;28;19921;-80
2023/04/30 03:38:25;;;;;;;;;;;7.70;99.90;;;;;;5025661;28;19921;-80
2023/04/30 03:40:51;;;;;;;;;;;7.70;99.90;;;;;;5025274;28;19924;-80
2023/04/30 03:43:18;;;;;;;;;;;7.60;99.90;;;;;;5025583;28;19932;-79
2023/04/30 03:45:45;;;;;;;;;;;7.60;99.90;;;;;;5025773;28;20395;-80
2023/04/30 03:48:12;;;;;;;;;;;7.50;99.90;;;;;;5012575;28;19932;-80
2023/04/30 03:50:38;;;;;;;;;;;7.50;99.90;;;;;;5027244;28;19928;-80
2023/04/30 03:53:05;;;;;;;;;;;7.50;99.90;;;;;;5006288;28;19921;-80
2023/04/30 03:55:32;;;;;;;;;;;7.50;99.90;;;;;;5006427;28;19987;-80
2023/04/30 03:57:59;;;;;;;;;;;7.50;99.90;;;;;;5005667;28;20536;-79
2023/04/30 04:00:26;;;;;;;;;;;7.50;99.90;;;;;;5006093;28;19956;-80
2023/04/30 04:02:52;;;;;;;;;;;7.40;99.90;;;;;;5024576;28;19983;-79
2023/04/30 04:05:19;;;;;;;;;;;7.50;99.90;;;;;;5025717;28;19925;-79
2023/04/30 04:07:46;;;;;;;;;;;7.50;99.90;;;;;;5024066;28;19971;-79
2023/04/30 04:10:13;;;;;;;;;;;7.50;99.90;;;;;;5007991;28;20060;-80
2023/04/30 04:12:39;;;;;;;;;;;7.50;99.90;;;;;;5026197;28;20316;-79
2023/04/30 04:15:07;;;;;;;;;;;7.50;99.90;;;;;;5026793;28;19920;-79
2023/04/30 04:17:33;;;;;;;;;;;7.50;99.90;;;;;;5038003;28;20397;-80
2023/04/30 04:20:00;;;;;;;;;;;7.50;99.90;;;;;;5025682;28;20751;-78
2023/04/30 04:22:26;;;;;;;;;;;7.60;99.90;;;;;;5007480;28;20377;-78
2023/04/30 04:24:54;;;;;;;;;;;7.50;99.90;;;;;;5025567;28;20427;-78
2023/04/30 04:27:20;;;;;;;;;;;7.60;99.90;;;;;;5026359;28;19921;-79
2023/04/30 04:29:47;;;;;;;;;;;7.60;99.90;;;;;;5025180;28;19960;-79
2023/04/30 04:32:14;;;;;;;;;;;7.50;99.90;;;;;;5024823;28;20007;-78
2023/04/30 04:34:41;;;;;;;;;;;7.50;99.90;;;;;;5026304;28;20570;-79
2023/04/30 04:37:08;;;;;;;;;;;7.50;99.90;;;;;;5025262;28;19944;-78
2023/04/30 04:39:36;;;;;;;;;;;7.50;99.90;;;;;;5023666;28;19921;-79
2023/04/30 04:42:03;;;;;;;;;;;7.50;99.90;;;;;;5023975;28;20367;-79
2023/04/30 04:44:31;;;;;;;;;;;7.50;99.90;;;;;;5020939;28;20416;-78
2023/04/30 04:46:57;;;;;;;;;;;7.50;99.90;;;;;;5023531;28;20467;-78
2023/04/30 04:49:27;;;;;;;;;;;7.50;99.90;;;;;;5016081;28;20048;-79
2023/04/30 04:51:54;;;;;;;;;;;7.50;99.90;;;;;;5020038;28;19936;-79
2023/04/30 04:54:20;;;;;;;;;;;7.40;99.90;;;;;;5022034;28;19925;-79
2023/04/30 04:56:47;;;;;;;;;;;7.40;99.90;;;;;;5032375;28;19977;-78
2023/04/30 04:59:15;;;;;;;;;;;7.40;99.90;;;;;;5017003;28;20490;-78
2023/04/30 05:01:42;;;;;;;;;;;7.40;99.90;;;;;;5016507;28;19944;-80
2023/04/30 05:04:09;;;;;;;;;;;7.40;99.90;;;;;;5011010;28;19947;-80
2023/04/30 05:06:35;;;;;;;;;;;7.50;99.90;;;;;;5016641;28;19925;-80
2023/04/30 05:09:05;;;;;;;;;;;7.50;99.90;;;;;;5022953;28;19925;-79
2023/04/30 05:11:32;;;;;;;;;;;7.50;99.90;;;;;;5018000;28;19931;-79
2023/04/30 05:13:58;;;;;;;;;;;7.60;99.90;;;;;;5022869;28;19921;-79
2023/04/30 05:16:25;;;;;;;;;;;7.60;99.90;;;;;;5020175;28;20023;-80
2023/04/30 05:18:52;;;;;;;;;;;7.60;99.90;;;;;;5016877;28;20001;-80
2023/04/30 05:21:19;;;;;;;;;;;7.70;99.90;;;;;;5014482;28;20096;-79
2023/04/30 05:23:45;;;;;;;;;;;7.70;99.90;;;;;;5013348;28;19925;-80
2023/04/30 05:26:12;;;;;;;;;;;7.70;99.90;;;;;;5009816;28;19972;-79
2023/04/30 05:28:38;;;;;;;;;;;7.80;99.90;;;;;;5015990;28;19921;-80
2023/04/30 05:31:05;;;;;;;;;;;7.80;99.90;;;;;;5017366;28;20161;-81
2023/04/30 05:33:32;;;;;;;;;;;7.80;99.90;;;;;;5013466;28;19936;-81
2023/04/30 05:35:59;;;;;;;;;;;7.90;99.90;;;;;;5013617;28;19995;-81
2023/04/30 05:38:26;;;;;;;;;;;7.90;99.90;;;;;;5027808;28;19925;-81
2023/04/30 05:40:53;;;;;;;;;;;8.00;99.90;;;;;;5018530;28;20100;-81
2023/04/30 05:43:20;;;;;;;;;;;8.00;99.90;;;;;;5014925;28;20051;-81
2023/04/30 05:45:46;;;;;;;;;;;8.00;99.90;;;;;;5006838;28;19931;-79
2023/04/30 05:48:13;;;;;;;;;;;8.10;99.90;;;;;;5013793;28;19975;-79
2023/04/30 05:50:40;;;;;;;;;;;8.10;99.90;;;;;;5027433;28;20026;-79
2023/04/30 05:53:07;;;;;;;;;;;8.20;99.90;;;;;;5015028;28;19925;-79
2023/04/30 05:55:34;;;;;;;;;;;8.20;99.90;;;;;;5004629;28;20044;-80
2023/04/30 05:58:00;;;;;;;;;;;8.30;99.90;;;;;;5019477;28;19925;-79
2023/04/30 06:00:27;;;;;;;;;;;8.40;99.90;;;;;;5015435;28;20018;-79
2023/04/30 06:02:54;;;;;;;;;;;8.40;99.90;;;;;;5010237;28;20013;-80
2023/04/30 06:05:21;;;;;;;;;;;8.50;99.90;;;;;;5015435;28;19932;-80
2023/04/30 06:07:48;;;;;;;;;;;8.60;99.90;;;;;;5011967;28;19929;-80
2023/04/30 06:10:14;;;;;;;;;;;8.70;99.90;;;;;;5015210;28;20348;-80
2023/04/30 06:12:41;;;;;;;;;;;8.80;99.90;;;;;;5017366;28;19960;-80
2023/04/30 06:15:08;;;;;;;;;;;8.80;99.90;;;;;;5036254;28;20030;-80
2023/04/30 06:17:35;;;;;;;;;;;8.90;99.90;;;;;;5036076;28;19964;-80
2023/04/30 06:20:05;;;;;;;;;;;9.00;99.90;;;;;;5015522;28;19936;-80
2023/04/30 06:22:33;;;;;;;;;;;9.10;99.90;;;;;;5013734;28;19979;-80
2023/04/30 06:25:00;;;;;;;;;;;9.20;99.90;;;;;;5023911;28;20020;-79
2023/04/30 06:27:27;;;;;;;;;;;9.30;99.90;;;;;;5019180;28;19925;-80
2023/04/30 06:29:54;;;;;;;;;;;9.40;99.90;;;;;;5019064;28;19929;-80
2023/04/30 06:32:21;;;;;;;;;;;9.50;99.90;;;;;;5017157;28;20459;-81
2023/04/30 06:34:48;;;;;;;;;;;9.60;99.90;;;;;;5016903;28;20088;-80
2023/04/30 06:37:14;;;;;;;;;;;9.70;99.90;;;;;;5021143;28;20032;-79
2023/04/30 06:39:41;;;;;;;;;;;9.80;99.90;;;;;;5015606;28;19929;-79
2023/04/30 06:42:08;;;;;;;;;;;9.90;99.90;;;;;;5015987;28;19931;-79
2023/04/30 06:44:34;;;;;;;;;;;9.90;99.90;;;;;;5019690;28;20015;-79
2023/04/30 06:47:01;;;;;;;;;;;10.00;99.90;;;;;;5035304;28;19921;-78
2023/04/30 06:49:28;;;;;;;;;;;10.10;99.90;;;;;;5017791;28;20360;-79
2023/04/30 06:51:57;;;;;;;;;;;10.10;99.90;;;;;;5017654;28;19921;-79
2023/04/30 06:54:25;;;;;;;;;;;10.20;99.90;;;;;;5010426;28;20035;-79
2023/04/30 06:56:52;;;;;;;;;;;10.30;99.90;;;;;;5014661;28;19935;-79
2023/04/30 06:59:19;;;;;;;;;;;10.40;99.90;;;;;;5036749;28;20046;-80
2023/04/30 07:01:45;;;;;;;;;;;10.50;99.90;;;;;;5017697;28;19936;-79
2023/04/30 07:04:12;;;;;;;;;;;10.60;99.90;;;;;;5016484;28;19931;-80
2023/04/30 07:06:39;;;;;;;;;;;10.70;99.90;;;;;;5015870;28;20427;-79
2023/04/30 07:09:06;;;;;;;;;;;10.80;99.90;;;;;;5018792;28;19932;-79
2023/04/30 07:11:33;;;;;;;;;;;10.90;99.90;;;;;;5016086;28;19948;-80
2023/04/30 07:13:59;;;;;;;;;;;11.00;99.90;;;;;;5000921;28;19921;-79
2023/04/30 07:16:26;;;;;;;;;;;11.10;99.90;;;;;;5018405;28;19947;-79
2023/04/30 07:18:53;;;;;;;;;;;11.10;99.90;;;;;;5018957;28;19929;-79
2023/04/30 07:21:20;;;;;;;;;;;11.20;99.90;;;;;;5017854;28;19964;-79
2023/04/30 07:23:50;;;;;;;;;;;11.30;99.90;;;;;;5018593;28;19925;-80
2023/04/30 07:26:17;;;;;;;;;;;11.40;99.90;;;;;;5008813;28;20039;-79
2023/04/30 07:28:45;;;;;;;;;;;11.50;99.90;;;;;;5015326;28;20425;-80
2023/04/30 07:31:12;;;;;;;;;;;11.60;99.90;;;;;;5031773;28;20034;-80
2023/04/30 07:33:39;;;;;;;;;;;11.70;99.90;;;;;;5021565;28;20184;-79
2023/04/30 07:36:06;;;;;;;;;;;11.80;99.90;;;;;;5009783;28;19935;-79
2023/04/30 07:38:33;;;;;;;;;;;11.90;99.90;;;;;;5019077;28;19940;-79
2023/04/30 07:41:01;;;;;;;;;;;12.00;99.90;;;;;;5013976;28;19948;-79
2023/04/30 07:43:28;;;;;;;;;;;12.10;99.90;;;;;;5013441;28;20071;-80
2023/04/30 07:45:57;;;;;;;;;;;12.20;99.90;;;;;;5014191;28;20322;-80
2023/04/30 07:48:24;;;;;;;;;;;12.30;99.90;;;;;;5016262;28;19924;-80
2023/04/30 07:50:50;;;;;;;;;;;12.40;99.90;;;;;;5015388;28;19932;-80
2023/04/30 07:53:18;;;;;;;;;;;12.50;99.90;;;;;;5024093;28;20027;-81
2023/04/30 07:55:45;;;;;;;;;;;12.70;99.90;;;;;;5024797;28;19952;-80
2023/04/30 07:58:12;;;;;;;;;;;12.80;99.90;;;;;;5016140;28;20305;-79
2023/04/30 08:00:39;;;;;;;;;;;12.90;99.90;;;;;;5017484;28;19925;-80
2023/04/30 08:03:06;;;;;;;;;;;13.00;99.90;;;;;;5016726;28;20008;-79
2023/04/30 08:05:32;;;;;;;;;;;13.10;99.90;;;;;;5016957;28;19925;-80
2023/04/30 08:07:59;;;;;;;;;;;13.20;99.90;;;;;;5014720;28;20218;-80
2023/04/30 08:10:26;;;;;;;;;;;13.30;99.90;;;;;;5028946;28;20054;-80
2023/04/30 08:12:55;;;;;;;;;;;13.30;99.90;;;;;;5019632;28;19935;-80
2023/04/30 08:15:22;;;;;;;;;;;13.50;99.90;;;;;;5021925;28;20006;-80
2023/04/30 08:17:50;;;;;;;;;;;13.60;99.90;;;;;;5019662;28;19924;-80
2023/04/30 08:20:16;;;;;;;;;;;13.70;99.90;;;;;;5015243;28;20117;-80
2023/04/30 08:22:43;;;;;;;;;;;13.80;99.90;;;;;;5017513;28;19932;-80
2023/04/30 08:25:11;;;;;;;;;;;13.80;99.90;;;;;;5018998;28;19944;-80
2023/04/30 08:27:38;;;;;;;;;;;13.90;99.90;;;;;;5011702;28;19990;-80
2023/04/30 08:30:05;;;;;;;;;;;14.00;99.90;;;;;;5021795;28;19925;-80
2023/04/30 08:32:35;;;;;;;;;;;14.10;99.90;;;;;;5019983;28;20075;-80
2023/04/30 08:35:05;;;;;;;;;;;14.20;99.90;;;;;;5021019;28;19921;-80
2023/04/30 08:37:32;;;;;;;;;;;14.30;99.90;;;;;;5024277;28;19969;-79
2023/04/30 08:39:59;;;;;;;;;;;14.40;99.90;;;;;;5020012;28;19931;-80
2023/04/30 08:42:28;;;;;;;;;;;14.50;99.90;;;;;;5032949;28;19925;-80
2023/04/30 08:44:55;;;;;;;;;;;14.60;99.90;;;;;;5037599;28;20360;-80
2023/04/30 08:47:22;;;;;;;;;;;14.60;99.90;;;;;;5023313;28;19976;-80
2023/04/30 08:49:49;;;;;;;;;;;14.70;99.90;;;;;;5020376;28;19960;-80
2023/04/30 08:52:15;;;;;;;;;;;14.80;99.90;;;;;;5032742;28;19936;-80
2023/04/30 08:54:42;;;;;;;;;;;14.90;99.90;;;;;;5013161;28;19933;-79
2023/04/30 08:57:09;;;;;;;;;;;15.00;99.90;;;;;;5014700;28;19976;-80
2023/04/30 08:59:36;;;;;;;;;;;15.10;99.90;;;;;;5014354;28;20419;-80
2023/04/30 09:02:02;;;;;;;;;;;15.10;99.90;;;;;;5014049;28;19931;-81
2023/04/30 09:04:29;;;;;;;;;;;15.20;99.90;;;;;;5020719;28;19924;-81
2023/04/30 09:06:58;;;;;;;;;;;15.20;99.90;;;;;;5014290;28;19947;-80
2023/04/30 09:09:28;;;;;;;;;;;15.30;99.90;;;;;;4994877;28;20004;-81
2023/04/30 09:12:09;;;;;;;;;;;15.40;99.90;;;;;;5006205;28;19921;-80
2023/04/30 09:14:39;;;;;;;;;;;15.50;99.90;;;;;;5010989;28;20133;-80
2023/04/30 09:17:06;;;;;;;;;;;15.50;99.90;;;;;;5016260;28;20003;-80
2023/04/30 09:19:32;;;;;;;;;;;15.40;99.90;;;;;;4992842;28;20483;-81
2023/04/30 09:22:08;;;;;;;;;;;15.40;99.90;;;;;;5006119;28;20251;-80
2023/04/30 09:24:44;;;;;;;;;;;15.50;99.90;;;;;;5007941;28;19948;-80
2023/04/30 09:27:14;;;;;;;;;;;15.60;99.90;;;;;;5012205;28;20015;-80
2023/04/30 09:29:41;;;;;;;;;;;15.70;99.90;;;;;;5013654;28;19931;-79
2023/04/30 09:32:08;;;;;;;;;;;15.90;99.90;;;;;;5014094;28;19928;-79
2023/04/30 09:34:35;;;;;;;;;;;16.00;99.90;;;;;;5017072;28;19967;-79
2023/04/30 09:37:03;;;;;;;;;;;16.00;99.90;;;;;;5020463;28;19936;-79
2023/04/30 09:39:29;;;;;;;;;;;16.00;99.90;;;;;;5016593;28;20315;-79
2023/04/30 09:42:09;;;;;;;;;;;16.10;99.90;;;;;;5014609;28;20020;-79
2023/04/30 09:44:36;;;;;;;;;;;16.20;99.90;;;;;;5012962;28;20175;-79
2023/04/30 09:47:03;;;;;;;;;;;16.30;99.90;;;;;;5014218;28;20352;-79
2023/04/30 09:49:30;;;;;;;;;;;16.40;99.90;;;;;;5015337;28;20375;-79
2023/04/30 09:52:00;;;;;;;;;;;16.50;99.90;;;;;;5014609;28;20421;-80
2023/04/30 09:54:28;;;;;;;;;;;16.60;99.90;;;;;;5011071;28;19928;-79
2023/04/30 09:57:00;;;;;;;;;;;16.70;99.90;;;;;;5013070;28;19929;-80
2023/04/30 09:59:32;;;;;;;;;;;17.00;99.90;;;;;;5010238;28;19924;-80
2023/04/30 10:02:00;;;;;;;;;;;17.10;99.90;;;;;;5013114;28;20055;-80
2023/04/30 10:04:34;;;;;;;;;;;17.30;99.90;;;;;;5010113;28;19925;-80
2023/04/30 10:07:02;;;;;;;;;;;17.40;99.90;;;;;;5006891;28;19925;-80
2023/04/30 10:09:32;;;;;;;;;;;17.50;99.90;;;;;;5013348;28;20330;-79
2023/04/30 10:11:58;;;;;;;;;;;17.50;99.90;;;;;;5013547;28;20241;-79
2023/04/30 10:14:26;;;;;;;;;;;17.60;99.90;;;;;;5012071;28;20256;-79
2023/04/30 10:16:52;;;;;;;;;;;17.60;99.90;;;;;;5011963;28;20055;-79
2023/04/30 10:19:22;;;;;;;;;;;17.80;99.90;;;;;;5011381;28;19956;-79
2023/04/30 10:21:48;;;;;;;;;;;17.90;99.90;;;;;;5012683;28;20031;-79
2023/04/30 10:24:18;;;;;;;;;;;18.00;99.90;;;;;;5014479;28;19929;-80
2023/04/30 10:26:46;;;;;;;;;;;18.10;99.90;;;;;;5014678;28;20256;-79
2023/04/30 10:29:13;;;;;;;;;;;18.30;99.90;;;;;;5016031;28;20047;-80
2023/04/30 10:31:40;;;;;;;;;;;18.50;99.90;;;;;;5003733;28;20412;-79
2023/04/30 10:34:07;;;;;;;;;;;18.50;99.90;;;;;;5010409;28;20007;-86
2023/04/30 10:36:37;;;;;;;;;;;18.60;99.90;;;;;;5023584;28;20428;-81
2023/04/30 10:39:04;;;;;;;;;;;18.60;99.90;;;;;;5014127;28;20531;-79
2023/04/30 10:41:30;;;;;;;;;;;18.60;99.90;;;;;;5012810;28;20207;-79
2023/04/30 10:44:00;;;;;;;;;;;18.60;99.90;;;;;;5013842;28;19947;-79
2023/04/30 10:46:27;;;;;;;;;;;18.80;99.90;;;;;;5015011;28;19928;-81
2023/04/30 10:48:54;;;;;;;;;;;18.80;99.90;;;;;;5013707;28;19928;-78
2023/04/30 10:51:21;;;;;;;;;;;19.00;99.90;;;;;;5013768;28;19935;-81
2023/04/30 10:53:49;;;;;;;;;;;19.10;99.90;;;;;;5014502;28;20051;-81
2023/04/30 10:56:31;;;;;;;;;;;19.30;99.90;;;;;;5014874;28;20381;-81
2023/04/30 10:59:00;;;;;;;;;;;19.50;99.20;;;;;;5017383;28;19948;-81
2023/04/30 11:01:27;;;;;;;;;;;19.70;99.20;;;;;;5017238;28;19933;-79
2023/04/30 11:04:05;;;;;;;;;;;19.80;98.10;;;;;;5014275;28;19952;-81
2023/04/30 11:06:50;;;;;;;;;;;20.00;97.70;;;;;;5014507;28;20089;-79
2023/04/30 11:09:17;;;;;;;;;;;20.10;97.90;;;;;;5019230;28;19935;-80
2023/04/30 11:11:44;;;;;;;;;;;20.20;96.80;;;;;;5025801;28;19929;-79
2023/04/30 11:14:11;;;;;;;;;;;20.30;96.80;;;;;;5016577;28;20310;-79
2023/04/30 11:16:37;;;;;;;;;;;20.40;97.70;;;;;;5016820;28;19924;-79
2023/04/30 11:19:05;;;;;;;;;;;20.60;97.50;;;;;;5018194;28;19970;-79
2023/04/30 11:21:32;;;;;;;;;;;20.60;96.20;;;;;;5016732;28;19925;-79
2023/04/30 11:24:03;;;;;;;;;;;20.70;95.90;;;;;;5017124;28;20352;-78
2023/04/30 11:26:30;;;;;;;;;;;20.80;96.70;;;;;;5030168;28;19981;-79
2023/04/30 11:28:56;;;;;;;;;;;20.90;95.80;;;;;;5016894;28;19951;-79
2023/04/30 11:31:30;;;;;;;;;;;21.10;96.20;;;;;;5016423;28;20016;-79
2023/04/30 11:33:59;;;;;;;;;;;21.20;96.30;;;;;;5016544;28;19928;-80
2023/04/30 11:36:28;;;;;;;;;;;21.10;94.80;;;;;;5022197;28;20024;-79
2023/04/30 11:38:55;;;;;;;;;;;21.30;95.70;;;;;;5015350;28;20017;-79
2023/04/30 11:41:22;;;;;;;;;;;21.40;95.20;;;;;;5014324;28;21514;-79
2023/04/30 11:43:48;;;;;;;;;;;21.50;95.50;;;;;;5018389;28;19965;-80
2023/04/30 11:46:18;;;;;;;;;;;21.50;95.20;;;;;;5014449;28;20024;-80
2023/04/30 11:48:45;;;;;;;;;;;21.50;94.10;;;;;;5011234;28;19971;-80
2023/04/30 11:51:18;;;;;;;;;;;21.60;94.90;;;;;;5011499;28;19960;-80
2023/04/30 11:53:45;;;;;;;;;;;21.70;94.50;;;;;;5015504;28;19972;-80
2023/04/30 11:56:12;;;;;;;;;;;21.80;94.40;;;;;;5016351;28;20369;-80
2023/04/30 11:58:39;;;;;;;;;;;21.90;94.30;;;;;;5011267;28;20270;-80
2023/04/30 12:01:06;;;;;;;;;;;22.10;93.50;;;;;;5014854;28;20327;-80
2023/04/30 12:03:39;;;;;;;;;;;22.10;91.70;;;;;;5018447;28;20021;-85
2023/04/30 12:06:08;;;;;;;;;;;22.30;92.10;;;;;;5015508;28;19983;-80
2023/04/30 12:08:35;;;;;;;;;;;22.30;92.70;;;;;;5012312;28;20370;-80
2023/04/30 12:11:02;;;;;;;;;;;22.20;92.00;;;;;;4995543;28;19933;-79
2023/04/30 12:13:30;;;;;;;;;;;22.20;91.30;;;;;;5028900;28;19971;-79
2023/04/30 12:15:58;;;;;;;;;;;22.30;91.40;;;;;;5014291;28;19925;-80
2023/04/30 12:18:25;;;;;;;;;;;22.30;91.90;;;;;;5017799;28;19936;-80
2023/04/30 12:20:52;;;;;;;;;;;22.20;92.00;;;;;;5012238;28;20311;-80
2023/04/30 12:23:18;;;;;;;;;;;22.20;92.30;;;;;;5015932;28;19941;-80
2023/04/30 12:25:46;;;;;;;;;;;22.30;91.40;;;;;;5014661;28;20347;-80
2023/04/30 12:28:13;;;;;;;;;;;22.50;92.30;;;;;;5014390;28;19921;-80
2023/04/30 12:30:39;;;;;;;;;;;22.70;91.60;;;;;;5015299;28;20242;-80
2023/04/30 12:33:07;;;;;;;;;;;23.00;91.10;;;;;;5015336;28;19947;-80
2023/04/30 12:35:34;;;;;;;;;;;23.30;90.80;;;;;;5015855;28;19987;-80
2023/04/30 12:38:10;;;;;;;;;;;23.30;91.10;;;;;;5030299;28;19925;-80
2023/04/30 12:40:37;;;;;;;;;;;23.30;89.70;;;;;;5014448;28;20004;-79
2023/04/30 12:43:04;;;;;;;;;;;23.00;89.10;;;;;;5013832;28;19929;-80
2023/04/30 12:45:52;;;;;;;;;;;22.60;90.10;;;;;;5015655;28;19932;-80
2023/04/30 12:48:20;;;;;;;;;;;22.50;90.80;;;;;;5017440;28;19956;-79
2023/04/30 12:50:47;;;;;;;;;;;22.40;89.00;;;;;;5015430;28;20351;-79
2023/04/30 12:53:14;;;;;;;;;;;22.50;89.40;;;;;;5015996;28;19945;-79
2023/04/30 12:55:41;;;;;;;;;;;22.70;90.40;;;;;;5011306;28;20653;-78
2023/04/30 12:58:15;;;;;;;;;;;22.80;89.20;;;;;;5018089;28;20433;-79
2023/04/30 13:00:42;;;;;;;;;;;22.70;90.10;;;;;;5015485;28;19921;-79
2023/04/30 13:03:09;;;;;;;;;;;22.90;90.60;;;;;;5015720;28;19979;-80
2023/04/30 13:05:36;;;;;;;;;;;23.00;88.30;;;;;;5016716;28;20010;-80
2023/04/30 13:08:05;;;;;;;;;;;23.10;88.30;;;;;;5032147;28;19960;-80
2023/04/30 13:10:31;;;;;;;;;;;23.10;85.80;;;;;;5014835;28;19925;-80
2023/04/30 13:12:58;;;;;;;;;;;23.30;87.40;;;;;;5017459;28;19962;-80
2023/04/30 13:15:25;;;;;;;;;;;23.40;86.30;;;;;;5020530;28;20030;-79
2023/04/30 13:17:52;;;;;;;;;;;23.40;86.00;;;;;;5015467;28;19925;-79
2023/04/30 13:20:19;;;;;;;;;;;23.40;87.20;;;;;;5011610;28;19922;-79
2023/04/30 13:22:46;;;;;;;;;;;23.80;86.60;;;;;;5011479;28;19922;-79
2023/04/30 13:25:12;;;;;;;;;;;24.00;86.10;;;;;;5015098;28;19925;-79
2023/04/30 13:27:39;;;;;;;;;;;24.20;83.90;;;;;;5015630;28;20406;-79
2023/04/30 13:30:06;;;;;;;;;;;24.30;83.20;;;;;;5029752;28;20320;-78
2023/04/30 13:32:33;;;;;;;;;;;24.20;82.80;;;;;;5014297;28;19950;-81
2023/04/30 13:35:00;;;;;;;;;;;24.10;82.30;;;;;;5013992;28;19929;-80
2023/04/30 13:37:26;;;;;;;;;;;24.20;83.90;;;;;;5015380;28;19925;-79
2023/04/30 13:39:53;;;;;;;;;;;24.40;82.10;;;;;;5013985;28;20442;-80
2023/04/30 13:42:20;;;;;;;;;;;24.60;81.10;;;;;;5012515;28;19933;-80
2023/04/30 13:44:48;;;;;;;;;;;24.80;81.60;;;;;;5014709;28;19959;-79
2023/04/30 13:47:15;;;;;;;;;;;24.80;80.00;;;;;;5012242;28;20513;-80
2023/04/30 13:49:42;;;;;;;;;;;24.90;79.00;;;;;;5016394;28;19978;-79
2023/04/30 13:52:08;;;;;;;;;;;24.80;80.30;;;;;;5012107;28;19932;-79
2023/04/30 13:54:37;;;;;;;;;;;24.70;79.00;;;;;;5017535;28;21278;-79
2023/04/30 13:57:04;;;;;;;;;;;24.60;79.40;;;;;;5016040;28;19967;-79
2023/04/30 13:59:31;;;;;;;;;;;24.80;80.00;;;;;;5013927;28;19924;-79
2023/04/30 14:01:58;;;;;;;;;;;24.80;79.50;;;;;;5013423;28;19932;-79
2023/04/30 14:04:24;;;;;;;;;;;24.80;77.90;;;;;;5014678;28;20041;-80
2023/04/30 14:06:55;;;;;;;;;;;25.00;78.40;;;;;;5010976;28;19924;-80
2023/04/30 14:09:22;;;;;;;;;;;25.30;80.20;;;;;;5016302;28;19925;-80
2023/04/30 14:11:48;;;;;;;;;;;25.30;77.50;;;;;;5013419;28;20052;-84
2023/04/30 14:14:15;;;;;;;;;;;25.30;78.40;;;;;;5011584;28;19929;-84
2023/04/30 14:16:43;;;;;;;;;;;25.40;78.00;;;;;;5008618;28;21073;-84
2023/04/30 14:19:10;;;;;;;;;;;25.20;76.20;;;;;;5014546;28;20026;-84
2023/04/30 14:21:36;;;;;;;;;;;24.80;75.40;;;;;;5015201;28;20261;-82
2023/04/30 14:24:03;;;;;;;;;;;24.60;77.20;;;;;;5016222;28;20020;-83
2023/04/30 14:26:30;;;;;;;;;;;24.50;76.80;;;;;;5013020;28;19925;-84